Chadstone Weather > Observations for 25/03/21

Select Day:



Observations
Time Temp Hum DP Wind Gust Dir Rain >9am Press
C % C kph kph mm hPa
00:00 17.4 94 16.4 1.1 12.2 SW 1.5 990.2
00:10 17.3 94 16.3 2.7 12.2 WSW 2.1 990.3
00:20 17.3 95 16.5 2.1 8.6 SSW 3.0 990.2
00:30 17.2 95 16.4 0.1 3.6 SW 3.3 990.2
00:40 17.1 95 16.3 2.3 8.6 WSW 3.6 990.1
00:50 17.0 96 16.4 2.3 8.6 WSW 3.9 990.1
01:00 17.0 96 16.4 0.2 3.6 W 4.2 990.1
01:10 16.8 97 16.3 0.2 5.0 SE 4.2 989.9
01:20 17.0 97 16.5 0.0 2.5 SSW 4.2 990.0
01:30 17.0 97 16.5 0.1 3.6 SW 4.2 990.1
01:40 17.1 97 16.6 1.1 6.1 WNW 5.7 989.9
01:50 17.1 97 16.6 4.2 13.3 W 6.3 989.9
02:00 17.1 97 16.6 6.0 18.4 W 6.3 990.0
02:10 17.1 97 16.6 6.5 13.3 W 6.3 990.1
02:20 17.0 97 16.5 3.7 14.8 W 6.3 990.1
02:30 17.0 97 16.5 5.3 14.8 WNW 6.3 989.9
02:40 17.0 97 16.5 4.1 11.2 W 6.3 990.0
02:50 17.0 97 16.5 5.5 15.8 WNW 6.3 989.9
03:00 17.0 97 16.5 6.7 19.4 WSW 6.3 990.0
03:10 17.0 97 16.5 6.9 19.4 WSW 6.3 990.0
03:20 17.0 97 16.5 6.7 15.8 WSW 6.3 990.0
03:30 17.0 97 16.5 5.7 12.2 W 6.3 990.0
03:40 17.0 97 16.5 5.7 14.8 W 6.3 989.9
03:50 17.0 97 16.5 5.1 15.8 WNW 6.3 989.9
04:00 17.0 97 16.5 8.3 18.4 W 6.3 990.0
04:10 17.0 97 16.5 8.7 17.3 W 6.6 990.0
04:20 16.8 98 16.5 5.2 14.8 W 6.6 990.1
04:30 16.8 98 16.5 7.9 18.4 WNW 6.6 990.1
04:40 16.7 98 16.4 7.1 17.3 W 6.6 990.2
04:50 16.6 98 16.3 7.7 17.3 NW 6.6 990.3
05:00 16.5 98 16.2 6.0 19.4 WNW 6.6 990.2
05:10 16.5 98 16.2 6.8 19.4 NW 6.6 990.3
05:20 16.5 98 16.2 7.3 18.4 WSW 6.6 990.4
05:30 16.5 98 16.2 8.2 22.0 WNW 6.6 990.5
05:40 16.6 97 16.1 6.5 19.4 NW 6.6 990.6
05:50 16.5 97 16.0 4.3 13.3 WNW 6.6 990.7
06:00 16.6 97 16.1 5.7 14.8 NW 6.6 990.8
06:10 16.6 96 16.0 6.7 17.3 NW 6.6 991.0
06:20 16.6 96 16.0 7.5 18.4 W 6.6 991.1
06:30 16.5 96 15.9 6.5 17.3 W 6.6 991.2
06:40 16.6 95 15.8 5.3 15.8 WSW 6.6 991.4
06:50 16.6 95 15.8 4.9 14.8 WSW 6.6 991.5
07:00 16.6 95 15.8 7.1 14.8 WNW 6.6 991.5
07:10 16.6 94 15.6 6.6 17.3 SW 6.6 991.6
07:20 16.6 94 15.6 5.7 15.8 WSW 6.6 991.8
07:30 16.6 94 15.6 4.8 18.4 WSW 6.6 992.1
07:40 16.6 94 15.6 5.6 13.3 W 6.6 992.2
07:50 16.6 94 15.6 3.2 15.8 W 6.6 992.2
08:00 16.5 93 15.4 3.3 9.7 W 6.6 992.4
08:10 16.6 93 15.5 5.9 14.8 WNW 6.6 992.4
08:20 16.6 93 15.5 5.6 12.2 WNW 6.6 992.6
08:30 16.8 93 15.7 4.2 12.2 W 6.6 992.7
08:40 16.8 93 15.7 5.8 13.3 W 6.6 992.8
08:50 16.9 92 15.6 5.7 20.9 NW 6.6 993.1
09:00 16.7 92 15.4 9.8 28.1 W 6.6 993.3
09:10 16.3 92 15.0 6.2 15.8 WSW 6.6 993.3
09:20 16.2 91 14.7 7.1 19.4 W 6.6 993.6
09:30 16.2 90 14.6 10.1 23.4 WNW 6.6 993.7
09:40 16.4 90 14.8 7.5 25.6 NW 6.6 994.0
09:50 16.6 89 14.8 8.9 24.5 WNW 6.6 993.9
10:00 16.8 89 15.0 7.3 20.9 WNW 0.0 994.1
10:10 17.0 87 14.8 8.7 24.5 WNW 0.0 994.3
10:20 17.2 86 14.8 7.1 20.9 W 0.0 994.3
10:30 17.2 85 14.7 9.1 20.9 WNW 0.0 994.5
10:40 17.1 83 14.2 13.7 28.1 WNW 0.0 994.9
10:50 17.3 82 14.2 7.4 25.6 W 0.0 994.7
11:00 17.2 82 14.1 8.0 19.4 N 0.0 994.8
11:10 17.2 82 14.1 7.4 17.3 WNW 0.0 994.9
11:20 17.3 82 14.2 6.1 17.3 W 0.0 994.9
11:30 17.6 81 14.3 6.8 19.4 W 0.0 994.9
11:40 18.1 80 14.6 5.4 18.4 NW 0.0 994.9
11:50 18.3 77 14.2 5.2 23.4 WNW 0.0 995.0
12:00 18.4 76 14.1 3.5 11.2 NNW 0.0 995.0
12:10 18.5 76 14.2 6.9 19.4 WNW 0.0 995.1
12:20 18.7 75 14.2 5.8 12.2 SSW 0.0 995.1
12:30 19.3 74 14.6 5.7 18.4 NW 0.3 995.0
12:40 19.6 70 14.0 6.8 18.4 WNW 0.3 994.9
12:50 19.9 70 14.3 5.4 13.3 WSW 0.3 994.9
13:00 20.1 67 13.8 7.9 20.9 W 0.3 994.8
13:10 20.2 67 13.9 6.4 13.3 WNW 0.3 994.7
13:20 20.8 65 14.0 6.0 19.4 SW 0.3 994.6
13:30 20.8 63 13.5 5.2 14.8 W 0.3 994.5
13:40 20.8 63 13.5 3.7 13.3 W 0.3 994.6
13:50 20.4 64 13.4 4.9 17.3 WNW 0.3 994.6
14:00 20.5 65 13.7 5.2 13.3 NW 0.3 994.4
14:10 20.5 64 13.5 4.2 11.2 SW 0.3 994.5
14:20 20.8 64 13.8 8.2 20.9 WSW 0.3 994.5
14:30 20.8 63 13.5 8.0 19.4 WNW 0.3 994.5
14:40 21.1 62 13.5 7.4 18.4 WNW 0.3 994.5
14:50 20.5 66 13.9 3.0 9.7 S 0.3 994.4
15:00 20.1 67 13.8 4.7 12.2 SSW 0.3 994.4
15:10 20.0 68 13.9 3.8 9.7 SSW 0.3 994.5
15:20 20.5 68 14.4 6.3 12.2 WSW 0.3 994.5
15:30 20.6 67 14.3 2.8 8.6 WSW 0.3 994.6
15:40 20.2 67 13.9 3.5 11.2 WSW 0.3 994.9
15:50 19.6 74 14.9 3.3 15.8 W 0.6 995.1
16:00 18.4 78 14.5 5.5 20.9 SW 0.9 995.4
16:10 17.9 82 14.8 4.0 15.8 SW 0.9 995.3
16:20 17.8 84 15.1 1.6 7.2 WSW 0.9 995.4
16:30 17.6 85 15.1 1.3 8.6 N 0.9 995.4
16:40 17.6 85 15.1 1.0 6.1 SW 0.9 995.5
16:50 17.8 85 15.3 1.3 8.6 S 0.9 995.5
17:00 17.7 84 15.0 1.3 7.2 S 0.9 995.5
17:10 17.9 84 15.2 2.4 11.2 SSE 0.9 995.6
17:20 17.9 83 15.0 1.0 12.2 SSW 0.9 995.7
17:30 17.9 83 15.0 0.9 5.0 SW 0.9 995.9
17:40 18.0 82 14.9 0.5 6.1 S 0.9 995.9
17:50 18.2 81 14.9 1.8 8.6 S 0.9 996.0
18:00 18.2 81 14.9 1.0 6.1 SSW 0.9 996.3
18:10 18.1 81 14.8 2.3 12.2 SSW 0.9 996.5
18:20 18.1 80 14.6 0.4 3.6 SW 0.9 996.6
18:30 18.0 79 14.3 0.0 2.5 WNW 0.9 996.6
18:40 17.9 79 14.2 0.2 5.0 SSW 0.9 996.6
18:50 17.8 79 14.1 0.2 5.0 SSW 0.9 996.7
19:00 17.6 80 14.1 0.7 8.6 ESE 0.9 996.8
19:10 17.5 80 14.0 0.9 8.6 SSW 0.9 996.9
19:20 17.4 80 13.9 0.3 5.0 SW 0.9 997.0
19:30 17.2 81 13.9 0.0 2.5 SW 0.9 997.1
19:40 17.0 82 13.9 0.0 1.1 SW 0.9 997.2
19:50 16.8 83 13.9 0.4 2.5 SE 0.9 997.5
20:00 16.8 84 14.1 0.0 2.5 SE 0.9 997.8
20:10 16.7 85 14.2 0.0 1.1 SW 0.9 998.1
20:20 16.7 85 14.2 0.0 1.1 SW 0.9 998.1
20:30 16.6 86 14.3 0.0 1.1 NE 0.9 998.3
20:40 16.6 87 14.4 0.0 2.5 NE 0.9 998.3
20:50 16.6 87 14.4 0.0 0.0 N 0.9 998.6
21:00 16.7 87 14.5 0.1 2.5 S 0.9 998.6
21:10 16.7 87 14.5 0.0 0.0 N 0.9 998.8
21:20 16.6 87 14.4 0.0 0.0 N 0.9 999.0
21:30 16.4 88 14.4 0.0 0.0 N 0.9 999.2
21:40 16.2 88 14.2 0.0 0.0 N 0.9 999.2
21:50 16.0 88 14.0 0.0 0.0 N 0.9 999.3
22:00 15.9 90 14.3 0.3 7.2 WNW 0.9 999.4
22:10 15.9 89 14.1 1.5 7.2 W 0.9 999.6
22:20 15.8 88 13.8 1.8 6.1 W 0.9 999.8
22:30 15.8 86 13.5 1.7 9.7 W 0.9 999.8
22:40 15.8 85 13.3 0.9 3.6 SW 0.9 999.8
22:50 15.6 84 12.9 0.1 5.0 W 0.9 1000.0
23:00 15.5 84 12.8 0.2 5.0 SW 0.9 1000.0
23:10 15.3 84 12.6 0.4 3.6 W 0.9 1000.0
23:20 15.3 85 12.8 1.6 6.1 WNW 0.9 1000.1
23:30 15.4 85 12.9 1.8 7.2 W 0.9 1000.3
23:40 15.6 85 13.1 4.0 8.6 W 0.9 1000.5
23:50 15.6 84 12.9 4.0 9.7 W 0.9 1000.6